Capitol Logistics 1900




LPPD
João Paulo II Airport
Ponta Delgada, PT
EDDK
Cologne Bonn Airport
Cologne, DE

Route Details

Aircraft Information
Group: European Fleet
Types: A30F,A31F,B738
Route Data
Demand: D
Distance: 1599nm
Duration: 4h 04m
Recm'd Route: BAVA1R BAVAS 4120N PASAS BUNAV UN536 TIVLU AKEMO UN471 OLEBA UN873 RONAX UL976 TABOV UN858 VALEK UM163 DIK T856 DEPOK DEPO1S
Origin Wx: LPPD 270500Z 12006KT 9999 SCT015 16/14 Q1021
Dest. Wx: EDDK 270450Z AUTO 27016KT 9999 BKN014 OVC019 14/11 Q1020 TEMPO 4000 RADZ
Notes:

Financial History
Total Freight: 7,393lbs
Average Load: 7,393lbs/flt
Fuel Used: 21,015lbs
Avg. Fuel Used: 21,015lbs/flt
Fuel Expense: $18,649
Avg. Fuel Expense: $18,649
Avg. Fuel Cost: $0.89/lbs
Total Gross Income: $15,089
Pilot Pay: $259
Total Expenses: $4,649
Total Revenue: $-9,330
Average Revenue: $15,089.11